This is the latest recevied weather packets stored in our database for station/object NQ9F. If no packets are shown the sender has not sent any weather packets the latest 10 day(s).
| Time | Temp. | Humidity | Pressure | Rain* | Wind** | Luminosity | Snow |
|---|---|---|---|---|---|---|---|
| 1777668373 | 16.67° C | 65% | 1017 hPa | 0 mm | - | 194 W/m² | - |
| 1777667766 | 16.67° C | 65% | 1017 hPa | 0 mm | - | 169 W/m² | - |
| 1777667464 | 16.67° C | 66% | 1017.2 hPa | 0 mm | - | 163 W/m² | - |
| 1777667160 | 16.67° C | 67% | 1017.2 hPa | 0 mm | - | 168 W/m² | - |
| 1777666857 | 16.67° C | 67% | 1017.7 hPa | 0 mm | - | 164 W/m² | - |
| 1777666554 | 16.67° C | 66% | 1017.6 hPa | 0 mm | - | 163 W/m² | - |
| 1777666250 | 16.11° C | 66% | 1017.4 hPa | 0 mm | - | 148 W/m² | - |
| 1777665948 | 16.11° C | 66% | 1017.3 hPa | 0 mm | - | 136 W/m² | - |
| 1777665645 | 16.11° C | 66% | 1017.4 hPa | 0 mm | - | 126 W/m² | - |
| 1777665342 | 16.11° C | 66% | 1017.1 hPa | 0 mm | - | 113 W/m² | - |
| 1777664431 | 16.11° C | 67% | 1016.9 hPa | 0 mm | - | 136 W/m² | - |
| 1777664127 | 16.11° C | 65% | 1016.7 hPa | 0 mm | - | 148 W/m² | - |
| 1777663826 | 16.11° C | 69% | 1017 hPa | 0 mm | - | 142 W/m² | - |
| 1777662309 | 16.11° C | 67% | 1016.8 hPa | 0 mm | - | 162 W/m² | - |
| 1777661701 | 16.11° C | 67% | 1016.7 hPa | 0 mm | - | 162 W/m² | - |
| 1777661398 | 16.11° C | 67% | 1016.6 hPa | 0 mm | - | 162 W/m² | - |
| 1777661094 | 16.11° C | 67% | 1016.4 hPa | 0 mm | - | 216 W/m² | - |
| 1777660486 | 16.11° C | 66% | 1016.7 hPa | 0 mm | - | 200 W/m² | - |
| 1777659576 | 16.11° C | 66% | 1017 hPa | 0 mm | - | 227 W/m² | - |
| 1777656850 | 16.11° C | 73% | 1016.9 hPa | 0 mm | - | 544 W/m² | - |
| 1777656545 | 16.11° C | 73% | 1017.2 hPa | 0 mm | - | 433 W/m² | - |
| 1777655936 | 16.11° C | 71% | 1017.2 hPa | 0 mm | - | 474 W/m² | - |
| 1777655633 | 16.11° C | 70% | 1017.3 hPa | 0 mm | - | 407 W/m² | - |
| 1777653512 | 15.56° C | 77% | 1018 hPa | 0 mm | - | 494 W/m² | - |
| 1777653209 | 15° C | 79% | 1018 hPa | 0 mm | - | 758 W/m² | - |
* Rain latest hour (hover to see other rain measurements)
** Current wind speed in m/s (hover to see current wind gust speed)